• Join FlightAware (Why Join?)
  • Login
  • US Flag 
07:15PM EDT


 

Airport Tracker/Info


-or-


 

Live Flight TrackerFlight Track Log ✈ EGF9800 ✈ 12-May-2013 ✈ MMCU / CUU - KDFW

Flight Track Log - Related Links

Times and Time Zones

All times are in EDT time to prevent confusion due to time zone crossing. See the EGF9800 flight status page for this flight to view local times or setup timezone preferences in your user account.

Time Position Orientation Groundspeed Altitude Reporting Facility
EDT Latitude Longitude Course Direction KTS MPH feet Rate Location/Type
10:52AM 29.2975 -105.3028 49° Northeast 393 452 23,800  Level Albuquerque Center
10:53AM 29.3700 -105.2056 49° Northeast 402 463 25,600 1,740 Climbing Albuquerque Center
10:54AM 29.4442 -105.1075 49° Northeast 407 468 27,400 1,740 Climbing Albuquerque Center
10:55AM 29.5189 -105.0075 49° Northeast 412 474 29,200 1,440 Climbing Albuquerque Center
10:56AM 29.5944 -104.9075 49° Northeast 414 476 30,400 840 Climbing Albuquerque Center
10:57AM 29.6744 -104.8003 49° Northeast 434 499 31,000 240 Climbing Albuquerque Center
10:58AM 29.7578 -104.6881 49° Northeast 457 526 31,000  Level Albuquerque Center
10:59AM 29.8558 -104.5544 50° Northeast 459 528 31,000  Level Albuquerque Center
11:00AM 29.9069 -104.4233 66° East 453 521 31,000  Level Albuquerque Center
11:01AM 29.9558 -104.2911 67° East 451 519 31,000  Level Albuquerque Center
11:02AM 30.0056 -104.1600 66° East 450 518 31,000  Level Albuquerque Center
11:03AM 30.0547 -104.0278 67° East 450 518 31,000  Level Albuquerque Center
11:04AM 30.1042 -103.8944 67° East 453 521 31,000  Level Albuquerque Center
11:05AM 30.1539 -103.7600 67° East 456 525 31,000  Level Albuquerque Center
11:06AM 30.2133 -103.5978 67° East 458 527 31,000  Level Albuquerque Center
11:07AM 30.2586 -103.4756 67° East 460 529 31,000  Level Albuquerque Center
11:08AM 30.3192 -103.3122 67° East 461 531 31,000  Level Albuquerque Center
11:09AM 30.3675 -103.1750 68° East 462 532 31,000  Level Albuquerque Center
11:10AM 30.4189 -103.0378 66° East 465 535 31,000 60 Level Albuquerque Center
11:12AM 30.4683 -102.8992 67° East 467 537 31,200 480 Climbing Albuquerque Center
11:13AM 30.5192 -102.7642 66° East 463 533 32,100 840 Climbing Albuquerque Center
11:14AM 30.5683 -102.6297 67° East 456 525 33,000 420 Climbing Albuquerque Center
11:15AM 30.6175 -102.4917 67° East 460 529 33,000  Level Albuquerque Center
11:16AM 30.6792 -102.3192 67° East 478 550 33,000  Level Albuquerque Center
11:17AM 30.7303 -102.1725 68° East 487 560 33,000 -60 Level Albuquerque Center
11:18AM 30.7808 -102.0292 68° East 487 560 32,900  Descending Albuquerque Center
11:19AM 30.8314 -101.8853 68° East 486 559 33,000  Climbing Albuquerque Center
11:20AM 30.8800 -101.7458 68° East 477 549 33,000  Level Albuquerque Center
11:21AM 30.9650 -101.5119 67° East 478 550 33,000  Level Fort Worth Center
11:22AM 30.9789 -101.4636 71° East 473 544 33,000  Level Houston Center
11:23AM 31.0272 -101.3269 68° East 474 545 33,000  Level Houston Center
11:24AM 31.0861 -101.1561 68° East 473 544 33,000  Level Houston Center
11:25AM 31.1344 -101.0211 67° East 448 516 33,000  Level Houston Center
11:26AM 31.1792 -100.8881 69° East 438 504 33,000  Level Houston Center
11:26AM 31.1981 -100.8350 67° East 445 512 33,000  Level Fort Worth Center
11:27AM 31.2458 -100.6911 69° East 457 526 33,000 180 Level Fort Worth Center
11:28AM 31.2975 -100.5422 68° East 471 542 33,400 660 Climbing Fort Worth Center
11:29AM 31.3514 -100.3858 68° East 471 542 34,400 780 Climbing Fort Worth Center
11:30AM 31.3986 -100.2389 69° East 471 542 35,000 300 Climbing Fort Worth Center
11:31AM 31.4500 -100.0847 69° East 488 562 35,000  Level Fort Worth Center
11:32AM 31.4992 -99.9325 69° East 493 567 35,000  Level Fort Worth Center
11:33AM 31.5481 -99.7803 69° East 493 567 35,000  Level Fort Worth Center
11:34AM 31.5986 -99.6306 68° East 498 573 35,000  Level Fort Worth Center
11:35AM 31.6492 -99.4803 68° East 493 567 35,000 -60 Level Fort Worth Center
11:36AM 31.6975 -99.3300 69° East 488 562 34,900 -960 Descending Fort Worth Center
11:37AM 31.7458 -99.1747 70° East 488 562 33,100 -1,920 Descending Fort Worth Center
11:38AM 31.7936 -99.0289 69° East 481 554 31,100 -2,040 Descending Fort Worth Center
11:39AM 31.8414 -98.8856 69° East 474 545 29,100 -1,800 Descending Fort Worth Center
11:40AM 31.8781 -98.7686 70° East 474 545 27,600 -1,860 Descending Fort Worth Center
11:41AM 31.9256 -98.6178 70° East 455 524 25,400 -2,340 Descending Fort Worth Center
11:42AM 31.9731 -98.4639 70° East 450 518 23,000 -2,160 Descending Fort Worth Center
11:43AM 32.0156 -98.3494 66° East 431 496 21,100 -2,100 Descending Fort Worth Center
11:44AM 32.0833 -98.2078 61° Northeast 438 504 18,900 -2,040 Descending Fort Worth Center
11:45AM 32.1361 -98.1103 57° Northeast 414 476 17,100 -2,100 Descending Fort Worth Center
11:46AM 32.2017 -97.9928 57° Northeast 382 440 14,700 -2,220 Descending Fort Worth Center
11:47AM 32.2478 -97.9047 58° Northeast 357 411 12,700 -1,800 Descending Fort Worth Center
11:48AM 32.3086 -97.8017 55° Northeast 345 397 11,100 -900 Descending Fort Worth Center
11:49AM 32.3550 -97.7158 57° Northeast 345 397 11,000 -60 Descending Fort Worth Center
11:50AM 32.4136 -97.6103 57° Northeast 345 397 11,000  Level Fort Worth Center
11:51AM 32.4597 -97.5242 58° Northeast 345 397 11,000  Level Fort Worth Center
11:52AM 32.5328 -97.4331 46° Northeast 340 391 11,000  Level Fort Worth Center
11:53AM 32.5933 -97.3592 46° Northeast 340 391 11,000  Level Fort Worth Center
11:54AM 32.6642 -97.2728 46° Northeast 335 386 11,000  Level Fort Worth Center
11:55AM 32.7081 -97.2183 46° Northeast 278 320 11,000  Level Fort Worth Center
11:56AM 32.7600 -97.1689 39° Northeast 223 257 11,000 -1,200 Level Fort Worth Center
11:57AM 32.8144 -97.1686 360° North 202 232 8,600 -2,280 Descending Fort Worth Center
11:58AM 32.8811 -97.1711 358° North 215 247 6,500 -1,380 Descending Fort Worth Center
11:59AM 32.9353 -97.1683 North 215 247 5,900 -960 Descending Fort Worth Center
12:00PM 33.0000 -97.1658 North 215 247 4,600 -1,200 Descending Fort Worth Center
12:01PM 33.0503 -97.1508 14° North 210 242 3,500 -960 Descending Fort Worth Center
12:02PM 33.0667 -97.1000 69° East 197 227 3,000 -300 Descending Dallas / Fort Worth TRACON
12:03PM 33.0333 -97.0667 140° Southeast 179 206 3,000 -480 Level Dallas / Fort Worth TRACON
12:04PM 32.9833 -97.0500 164° South 168 193 2,100 -900 Descending Dallas / Fort Worth TRACON
12:05PM 32.9500 -97.0500 180° South 127 146 1,200 -960 Descending Dallas / Fort Worth TRACON